createdAt,value
2022-07-27T00:00:47.245Z,99567.59
2022-07-27T00:03:13.824Z,99562.41
2022-07-27T00:05:40.447Z,99567.41
2022-07-27T00:08:07.239Z,99557.47
2022-07-27T00:10:34.733Z,99553.34
2022-07-27T00:13:01.269Z,99560.97
2022-07-27T00:15:28.057Z,99565.13
2022-07-27T00:17:55.444Z,99564.75
2022-07-27T00:20:22.936Z,99562.22
2022-07-27T00:22:54.843Z,99572.34
2022-07-27T00:25:22.796Z,99577.13
2022-07-27T00:27:49.427Z,99573.81
2022-07-27T00:30:16.407Z,99580.63
2022-07-27T00:32:42.898Z,99583.13
2022-07-27T00:35:09.817Z,99581.06
2022-07-27T00:37:36.352Z,99591.78
2022-07-27T00:40:03.820Z,99596.34
2022-07-27T00:42:31.282Z,99588.06
2022-07-27T00:44:58.103Z,99598.81
2022-07-27T00:47:25.309Z,99596.34
2022-07-27T00:49:51.819Z,99598.81
2022-07-27T00:52:18.798Z,99605.44
2022-07-27T00:54:45.675Z,99605.44
2022-07-27T00:57:13.151Z,99615.31
2022-07-27T00:59:39.934Z,99632.69
2022-07-27T01:02:11.344Z,99626.09
2022-07-27T01:04:39.421Z,99623.78
2022-07-27T01:07:07.348Z,99621.31
2022-07-27T01:09:53.341Z,99633.91
2022-07-27T01:12:23.271Z,99634.53
2022-07-27T01:14:51.020Z,99633.50
2022-07-27T01:17:18.082Z,99626.50
2022-07-27T01:19:45.035Z,99637.44
2022-07-27T01:22:11.732Z,99627.69
2022-07-27T01:24:38.851Z,99636.78
2022-07-27T01:27:06.344Z,99633.88
2022-07-27T01:29:34.035Z,99632.84
2022-07-27T01:32:02.004Z,99641.72
2022-07-27T01:34:28.882Z,99635.50
2022-07-27T01:36:55.831Z,99640.22
2022-07-27T01:39:22.310Z,99642.91
2022-07-27T01:41:49.156Z,99633.03
2022-07-27T01:44:15.743Z,99635.31
2022-07-27T01:46:42.375Z,99631.78
2022-07-27T01:49:09.772Z,99626.78
2022-07-27T01:51:36.486Z,99631.31
2022-07-27T01:54:03.770Z,99641.66
2022-07-27T01:56:30.395Z,99643.06
2022-07-27T01:58:56.975Z,99647.41
2022-07-27T02:01:23.565Z,99640.16
2022-07-27T02:03:50.247Z,99649.44
2022-07-27T02:06:16.716Z,99657.66
2022-07-27T02:08:43.161Z,99649.75
2022-07-27T02:11:28.174Z,99647.66
2022-07-27T02:13:54.713Z,99662.50
2022-07-27T02:16:21.251Z,99656.50
2022-07-27T02:18:51.124Z,99649.63
2022-07-27T02:21:17.807Z,99662.84
2022-07-27T02:23:45.480Z,99660.63
2022-07-27T02:26:12.050Z,99657.06
2022-07-27T02:28:39.342Z,99668.25
2022-07-27T02:31:05.973Z,99667.03
2022-07-27T02:33:32.970Z,99669.50
2022-07-27T02:35:59.598Z,99672.63
2022-07-27T02:38:26.214Z,99677.41
2022-07-27T02:40:53.004Z,99679.44
2022-07-27T02:43:19.531Z,99682.72
2022-07-27T02:45:46.512Z,99678.13
2022-07-27T02:48:13.867Z,99678.53
2022-07-27T02:50:40.372Z,99682.19
2022-07-27T02:53:06.873Z,99680.22
2022-07-27T02:55:33.457Z,99689.66
2022-07-27T02:58:00.116Z,99690.88
2022-07-27T03:00:26.738Z,99694.56
2022-07-27T03:02:53.377Z,99690.59
2022-07-27T03:05:19.868Z,99696.53
2022-07-27T03:07:46.486Z,99698.34
2022-07-27T03:10:13.073Z,99689.06
2022-07-27T03:12:39.591Z,99694.78
2022-07-27T03:15:06.612Z,99700.16
2022-07-27T03:17:33.322Z,99703.03
2022-07-27T03:19:59.905Z,99705.97
2022-07-27T03:22:30.575Z,99710.06
2022-07-27T03:24:57.388Z,99720.84
2022-07-27T03:27:23.863Z,99724.22
2022-07-27T03:29:50.431Z,99729.63
2022-07-27T03:32:17.297Z,99725.16
2022-07-27T03:34:43.966Z,99731.69
2022-07-27T03:37:10.614Z,99737.09
2022-07-27T03:39:37.369Z,99735.44
2022-07-27T03:42:06.756Z,99739.47
2022-07-27T03:44:33.587Z,99741.94
2022-07-27T03:47:00.663Z,99738.44
2022-07-27T03:49:27.325Z,99745.72
2022-07-27T03:51:53.972Z,99742.47
2022-07-27T03:54:20.572Z,99754.00
2022-07-27T03:56:47.203Z,99752.25
2022-07-27T03:59:14.484Z,99743.81
2022-07-27T04:01:41.691Z,99753.50
2022-07-27T04:04:08.313Z,99757.69
2022-07-27T04:06:35.080Z,99755.94
2022-07-27T04:09:13.745Z,99763.28
2022-07-27T04:11:50.629Z,99760.41
2022-07-27T04:14:18.326Z,99753.75
2022-07-27T04:16:45.025Z,99762.69
2022-07-27T04:19:11.836Z,99766.13
2022-07-27T04:21:38.993Z,99763.63
2022-07-27T04:24:07.061Z,99771.81
2022-07-27T04:26:33.715Z,99770.38
2022-07-27T04:29:00.933Z,99778.03
2022-07-27T04:31:27.617Z,99778.19
2022-07-27T04:33:54.167Z,99777.00
2022-07-27T04:36:20.976Z,99776.09
2022-07-27T04:38:47.590Z,99785.06
2022-07-27T04:41:14.199Z,99785.16
2022-07-27T04:43:40.809Z,99781.03
2022-07-27T04:46:10.613Z,99788.16
2022-07-27T04:48:39.794Z,99789.38
2022-07-27T04:51:08.258Z,99795.31
2022-07-27T04:53:36.802Z,99792.03
2022-07-27T04:56:20.080Z,99788.59
2022-07-27T04:58:46.630Z,99789.25
2022-07-27T05:01:13.192Z,99798.25
2022-07-27T05:03:40.576Z,99795.34
2022-07-27T05:06:07.330Z,99801.41
2022-07-27T05:08:35.316Z,99798.19
2022-07-27T05:11:02.625Z,99799.47
2022-07-27T05:13:29.225Z,99796.47
2022-07-27T05:15:56.137Z,99783.69
2022-07-27T05:18:23.690Z,99787.09
2022-07-27T05:20:50.477Z,99797.66
2022-07-27T05:23:17.339Z,99796.81
2022-07-27T05:25:44.224Z,99798.84
2022-07-27T05:28:13.997Z,99795.25
2022-07-27T05:30:40.720Z,99799.22
2022-07-27T05:33:07.337Z,99802.63
2022-07-27T05:35:33.825Z,99804.00
2022-07-27T05:38:00.396Z,99803.44
2022-07-27T05:40:27.244Z,99804.75
2022-07-27T05:42:53.759Z,99807.09
2022-07-27T05:45:20.448Z,99809.00
2022-07-27T05:47:47.148Z,99810.91
2022-07-27T05:50:14.198Z,99808.53
2022-07-27T05:52:40.753Z,99808.66
2022-07-27T05:55:07.931Z,99819.53
2022-07-27T05:57:34.813Z,99833.81
2022-07-27T06:00:01.612Z,99841.66
2022-07-27T06:02:30.323Z,99842.28
2022-07-27T06:04:57.341Z,99842.00
2022-07-27T06:07:42.599Z,99850.81
2022-07-27T06:10:09.626Z,99855.13
2022-07-27T06:12:43.530Z,99858.69
2022-07-27T06:15:11.222Z,99874.72
2022-07-27T06:17:37.849Z,99877.31
2022-07-27T06:20:05.770Z,99880.31
2022-07-27T06:22:32.303Z,99888.59
2022-07-27T06:24:59.381Z,99900.22
2022-07-27T06:27:29.435Z,99903.78
2022-07-27T06:29:56.213Z,99896.88
2022-07-27T06:32:22.755Z,99890.66
2022-07-27T06:34:49.553Z,99894.06
2022-07-27T06:37:17.011Z,99900.31
2022-07-27T06:39:46.601Z,99901.13
2022-07-27T06:42:16.345Z,99892.84
2022-07-27T06:44:42.823Z,99879.75
2022-07-27T06:47:09.363Z,99884.38
2022-07-27T06:49:35.976Z,99884.63
2022-07-27T06:52:02.739Z,99878.56
2022-07-27T06:54:29.253Z,99877.75
2022-07-27T06:56:55.881Z,99893.91
2022-07-27T06:59:22.489Z,99907.44
2022-07-27T07:01:49.287Z,99900.81
2022-07-27T07:04:16.247Z,99895.84
2022-07-27T07:06:43.079Z,99906.94
2022-07-27T07:09:09.760Z,99907.94
2022-07-27T07:11:37.913Z,99889.28
2022-07-27T07:14:04.867Z,99895.41
2022-07-27T07:16:31.547Z,99893.38
2022-07-27T07:18:58.238Z,99901.16
2022-07-27T07:21:24.939Z,99907.63
2022-07-27T07:23:51.749Z,99902.72
2022-07-27T07:26:18.595Z,99879.19
2022-07-27T07:28:45.261Z,99891.09
2022-07-27T07:31:11.826Z,99885.97
2022-07-27T07:33:38.541Z,99881.72
2022-07-27T07:36:13.175Z,99884.84
2022-07-27T07:38:41.294Z,99881.13
2022-07-27T07:41:08.000Z,99889.63
2022-07-27T07:43:36.636Z,99883.16
2022-07-27T07:46:04.057Z,99875.25
2022-07-27T07:48:30.870Z,99862.16
2022-07-27T07:50:57.463Z,99873.69
2022-07-27T07:53:24.265Z,99860.38
2022-07-27T07:55:52.052Z,99853.44
2022-07-27T07:58:19.010Z,99856.78
2022-07-27T08:00:45.790Z,99859.28
2022-07-27T08:03:12.363Z,99847.97
2022-07-27T08:05:38.951Z,99848.91
2022-07-27T08:08:05.969Z,99854.47
2022-07-27T08:10:32.646Z,99856.47
2022-07-27T08:12:59.200Z,99842.59
2022-07-27T08:15:29.978Z,99850.44
2022-07-27T08:18:03.011Z,99842.78
2022-07-27T08:20:29.830Z,99854.94
2022-07-27T08:22:56.328Z,99844.06
2022-07-27T08:25:23.239Z,99850.75
2022-07-27T08:27:49.986Z,99850.09
2022-07-27T08:30:16.897Z,99843.63
2022-07-27T08:32:53.178Z,99848.50
2022-07-27T08:35:20.343Z,99850.06
2022-07-27T08:37:47.179Z,99855.88
2022-07-27T08:43:02.841Z,99860.84
2022-07-27T08:45:31.867Z,99857.69
2022-07-27T08:47:58.417Z,99855.72
2022-07-27T08:50:25.862Z,99863.56
2022-07-27T08:53:05.764Z,99866.84
2022-07-27T08:55:33.993Z,99867.09
2022-07-27T08:58:03.113Z,99869.50
2022-07-27T09:00:30.788Z,99866.59
2022-07-27T09:02:57.833Z,99872.63
2022-07-27T09:05:24.703Z,99871.44
2022-07-27T09:07:51.641Z,99864.00
2022-07-27T09:10:35.655Z,99861.59
2022-07-27T09:13:26.975Z,99873.47
2022-07-27T09:16:20.908Z,99874.66
2022-07-27T09:18:48.725Z,99869.19
2022-07-27T09:21:21.709Z,99859.06
2022-07-27T09:24:36.746Z,99863.09
2022-07-27T09:27:05.643Z,99860.34
2022-07-27T09:29:36.625Z,99869.34
2022-07-27T09:32:14.700Z,99866.19
2022-07-27T09:34:41.357Z,99862.28
2022-07-27T09:37:09.439Z,99859.09
2022-07-27T09:39:35.926Z,99861.94
2022-07-27T09:42:03.840Z,99857.09
2022-07-27T09:44:43.334Z,99859.47
2022-07-27T09:47:27.457Z,99854.72
2022-07-27T09:49:58.986Z,99851.31
2022-07-27T09:52:28.593Z,99859.34
2022-07-27T09:55:02.956Z,99858.16
2022-07-27T09:57:29.594Z,99855.38
2022-07-27T10:00:22.378Z,99847.03
2022-07-27T10:02:50.471Z,99863.78
2022-07-27T10:05:22.668Z,99864.06
2022-07-27T10:07:53.182Z,99869.09
2022-07-27T10:10:21.437Z,99867.31
2022-07-27T10:12:53.959Z,99864.06
2022-07-27T10:15:21.560Z,99864.38
2022-07-27T10:17:55.605Z,99868.88
2022-07-27T10:20:22.351Z,99872.63
2022-07-27T10:22:58.680Z,99870.88
2022-07-27T10:25:27.146Z,99876.69
2022-07-27T10:28:13.501Z,99876.72
2022-07-27T10:30:40.345Z,99872.06
2022-07-27T10:33:16.621Z,99868.97
2022-07-27T10:35:43.393Z,99875.31
2022-07-27T10:38:11.204Z,99873.56
2022-07-27T10:40:39.266Z,99867.47
2022-07-27T10:43:07.044Z,99863.09
2022-07-27T10:45:50.211Z,99859.19
2022-07-27T10:48:47.712Z,99864.84
2022-07-27T10:51:17.139Z,99859.28
2022-07-27T10:56:45.947Z,99858.38
2022-07-27T10:59:12.849Z,99855.53
2022-07-27T11:01:58.579Z,99859.56
2022-07-27T11:04:26.141Z,99852.72
2022-07-27T11:10:03.670Z,99868.34
2022-07-27T11:12:31.479Z,99859.91
2022-07-27T11:14:58.504Z,99868.63
2022-07-27T11:20:15.955Z,99857.31
2022-07-27T11:25:29.273Z,99853.34
2022-07-27T11:27:55.893Z,99850.81
2022-07-27T11:30:24.377Z,99859.34
2022-07-27T11:32:52.809Z,99854.94
2022-07-27T11:35:20.345Z,99851.19
2022-07-27T11:38:06.124Z,99859.09
2022-07-27T11:40:57.055Z,99854.28
2022-07-27T11:43:37.216Z,99861.56
2022-07-27T11:46:28.247Z,99856.81
2022-07-27T11:49:17.776Z,99855.69
2022-07-27T11:51:50.075Z,99859.06
2022-07-27T11:54:23.454Z,99857.88
2022-07-27T11:56:55.248Z,99863.69
2022-07-27T11:59:23.748Z,99868.72
2022-07-27T12:01:53.509Z,99866.13
2022-07-27T12:04:40.175Z,99861.44
2022-07-27T12:07:08.398Z,99862.38
2022-07-27T12:09:39.135Z,99858.50
2022-07-27T12:12:16.632Z,99862.38
2022-07-27T12:14:46.275Z,99850.94
2022-07-27T12:17:26.969Z,99851.56
2022-07-27T12:20:10.765Z,99858.75
2022-07-27T12:22:39.874Z,99852.72
2022-07-27T12:25:12.607Z,99847.63
2022-07-27T12:28:02.841Z,99856.94
2022-07-27T12:30:31.309Z,99851.16
2022-07-27T12:33:00.345Z,99857.03
2022-07-27T12:35:37.294Z,99856.50
2022-07-27T12:38:09.541Z,99849.19
2022-07-27T12:40:44.569Z,99849.31
2022-07-27T12:43:15.685Z,99849.81
2022-07-27T12:45:42.297Z,99849.81
2022-07-27T12:48:11.980Z,99856.75
2022-07-27T12:50:40.665Z,99851.47
2022-07-27T12:53:08.027Z,99848.22
2022-07-27T12:55:34.952Z,99852.50
2022-07-27T12:58:01.505Z,99843.19
2022-07-27T13:00:33.614Z,99856.16
2022-07-27T13:03:02.033Z,99845.81
2022-07-27T13:05:29.000Z,99844.22
2022-07-27T13:07:55.571Z,99845.81
2022-07-27T13:10:22.644Z,99843.28
2022-07-27T13:12:49.641Z,99851.31
2022-07-27T13:15:16.791Z,99849.28
2022-07-27T13:17:44.194Z,99846.78
2022-07-27T13:20:12.762Z,99844.88
2022-07-27T13:22:40.829Z,99848.56
2022-07-27T13:25:16.438Z,99845.84
2022-07-27T13:27:48.004Z,99846.53
2022-07-27T13:30:16.176Z,99840.66
2022-07-27T13:32:43.173Z,99844.34
2022-07-27T13:35:12.494Z,99832.53
2022-07-27T13:37:40.085Z,99836.50
2022-07-27T13:40:07.936Z,99829.47
2022-07-27T13:42:34.462Z,99828.63
2022-07-27T13:45:09.118Z,99827.34
2022-07-27T13:47:38.035Z,99829.72
2022-07-27T13:50:05.453Z,99835.69
2022-07-27T13:52:31.935Z,99823.13
2022-07-27T13:54:58.440Z,99832.75
2022-07-27T13:57:25.154Z,99813.88
2022-07-27T13:59:51.666Z,99818.28
2022-07-27T14:02:22.842Z,99824.78
2022-07-27T14:04:50.310Z,99833.28
2022-07-27T14:07:17.481Z,99821.72
2022-07-27T14:10:03.021Z,99816.72
2022-07-27T14:12:29.540Z,99825.44
2022-07-27T14:14:56.302Z,99829.41
2022-07-27T14:17:23.193Z,99832.03
2022-07-27T14:19:49.725Z,99827.38
2022-07-27T14:22:16.381Z,99832.41
2022-07-27T14:24:42.947Z,99835.81
2022-07-27T14:27:09.447Z,99825.13
2022-07-27T14:29:36.078Z,99833.41
2022-07-27T14:32:02.903Z,99833.28
2022-07-27T14:34:29.593Z,99828.81
2022-07-27T14:36:56.256Z,99832.78
2022-07-27T14:39:23.271Z,99842.63
2022-07-27T14:41:49.828Z,99826.16
2022-07-27T14:44:18.627Z,99834.06
2022-07-27T14:46:46.484Z,99827.03
2022-07-27T14:49:14.820Z,99826.44
2022-07-27T14:51:41.750Z,99825.03
2022-07-27T14:54:08.539Z,99825.00
2022-07-27T14:56:36.621Z,99832.81
2022-07-27T14:59:04.145Z,99824.56
2022-07-27T15:01:30.919Z,99823.66
2022-07-27T15:03:57.567Z,99817.34
2022-07-27T15:06:24.183Z,99815.00
2022-07-27T15:08:50.718Z,99811.13
2022-07-27T15:11:17.251Z,99807.22
2022-07-27T15:13:43.748Z,99816.66
2022-07-27T15:16:12.051Z,99814.03
2022-07-27T15:18:39.208Z,99814.38
2022-07-27T15:21:13.615Z,99811.47
2022-07-27T15:23:44.456Z,99814.28
2022-07-27T15:26:12.538Z,99820.09
2022-07-27T15:28:40.056Z,99815.00
2022-07-27T15:31:06.720Z,99809.13
2022-07-27T15:33:33.476Z,99817.59
2022-07-27T15:35:59.998Z,99810.53
2022-07-27T15:38:26.640Z,99811.66
2022-07-27T15:40:53.320Z,99816.44
2022-07-27T15:43:20.345Z,99809.03
2022-07-27T15:45:48.985Z,99809.91
2022-07-27T15:48:17.186Z,99812.28
2022-07-27T15:50:45.899Z,99811.97
2022-07-27T15:53:13.261Z,99811.25
2022-07-27T15:55:39.823Z,99822.91
2022-07-27T15:58:06.881Z,99807.34
2022-07-27T16:00:39.416Z,99806.88
2022-07-27T16:03:07.567Z,99803.69
2022-07-27T16:05:34.188Z,99804.63
2022-07-27T16:08:00.840Z,99809.97
2022-07-27T16:10:29.768Z,99805.69
2022-07-27T16:12:56.974Z,99805.94
2022-07-27T16:15:43.656Z,99802.53
2022-07-27T16:18:10.564Z,99802.66
2022-07-27T16:20:37.262Z,99797.94
2022-07-27T16:23:17.696Z,99793.69
2022-07-27T16:26:07.630Z,99794.97
2022-07-27T16:28:40.819Z,99794.16
2022-07-27T16:31:08.873Z,99800.25
2022-07-27T16:33:35.579Z,99796.75
2022-07-27T16:36:02.706Z,99791.59
2022-07-27T16:38:29.488Z,99798.72
2022-07-27T16:40:56.124Z,99805.91
2022-07-27T16:43:23.233Z,99794.50
2022-07-27T16:46:05.433Z,99791.00
2022-07-27T16:48:38.336Z,99795.91
2022-07-27T16:51:11.621Z,99792.84
2022-07-27T16:53:40.150Z,99793.81
2022-07-27T16:56:07.111Z,99792.41
2022-07-27T16:58:34.285Z,99793.91
2022-07-27T17:01:01.708Z,99794.25
2022-07-27T17:03:28.287Z,99793.69
2022-07-27T17:05:54.846Z,99789.81
2022-07-27T17:08:22.008Z,99787.22
2022-07-27T17:10:55.180Z,99782.97
2022-07-27T17:13:23.161Z,99782.97
2022-07-27T17:16:00.908Z,99776.75
2022-07-27T17:18:27.847Z,99782.25
2022-07-27T17:20:54.428Z,99778.47
2022-07-27T17:23:21.139Z,99775.69
2022-07-27T17:25:47.772Z,99786.63
2022-07-27T17:28:14.282Z,99776.84
2022-07-27T17:30:40.741Z,99778.44
2022-07-27T17:33:07.511Z,99782.03
2022-07-27T17:35:35.264Z,99782.97
2022-07-27T17:38:06.887Z,99782.25
2022-07-27T17:40:34.659Z,99778.81
2022-07-27T17:43:01.181Z,99779.56
2022-07-27T17:45:27.779Z,99787.47
2022-07-27T17:47:55.082Z,99781.53
2022-07-27T17:50:21.712Z,99780.03
2022-07-27T17:52:48.218Z,99777.31
2022-07-27T17:55:14.913Z,99780.69
2022-07-27T17:57:41.557Z,99783.16
2022-07-27T18:00:10.619Z,99791.88
2022-07-27T18:02:37.370Z,99789.75
2022-07-27T18:05:07.788Z,99796.00
2022-07-27T18:07:39.164Z,99791.03
2022-07-27T18:10:08.102Z,99796.53
2022-07-27T18:12:35.594Z,99787.59
2022-07-27T18:15:21.060Z,99791.84
2022-07-27T18:17:47.648Z,99787.78
2022-07-27T18:20:17.536Z,99782.25
2022-07-27T18:22:44.302Z,99782.69
2022-07-27T18:25:11.472Z,99787.34
2022-07-27T18:27:38.624Z,99794.09
2022-07-27T18:30:06.535Z,99787.72
2022-07-27T18:32:33.533Z,99791.34
2022-07-27T18:35:01.869Z,99789.78
2022-07-27T18:37:28.703Z,99790.91
2022-07-27T18:39:55.308Z,99804.91
2022-07-27T18:42:21.925Z,99801.19
2022-07-27T18:44:48.886Z,99797.53
2022-07-27T18:47:15.556Z,99803.22
2022-07-27T18:49:42.178Z,99804.84
2022-07-27T18:52:08.922Z,99808.84
2022-07-27T18:54:35.848Z,99814.28
2022-07-27T18:57:02.963Z,99821.41
2022-07-27T18:59:30.307Z,99826.59
2022-07-27T19:01:57.747Z,99823.72
2022-07-27T19:04:24.661Z,99828.06
2022-07-27T19:06:51.603Z,99826.88
2022-07-27T19:09:18.302Z,99830.00
2022-07-27T19:11:44.976Z,99834.34
2022-07-27T19:14:11.608Z,99834.78
2022-07-27T19:16:38.488Z,99833.97
2022-07-27T19:19:07.752Z,99842.25
2022-07-27T19:21:38.304Z,99840.41
2022-07-27T19:24:05.372Z,99847.06
2022-07-27T19:26:33.654Z,99846.81
2022-07-27T19:29:01.952Z,99852.44
2022-07-27T19:31:28.938Z,99856.78
2022-07-27T19:33:56.143Z,99859.69
2022-07-27T19:36:23.854Z,99867.34
2022-07-27T19:38:50.864Z,99875.41
2022-07-27T19:41:17.751Z,99872.91
2022-07-27T19:43:44.519Z,99884.91
2022-07-27T19:46:11.190Z,99883.66
2022-07-27T19:48:37.935Z,99897.09
2022-07-27T19:51:06.976Z,99892.28
2022-07-27T19:53:35.721Z,99901.78
2022-07-27T19:56:05.037Z,99901.34
2022-07-27T19:58:32.050Z,99916.00
2022-07-27T20:00:58.788Z,99915.78
2022-07-27T20:03:25.556Z,99927.00
2022-07-27T20:05:52.529Z,99926.97
2022-07-27T20:08:19.294Z,99925.28
2022-07-27T20:10:47.559Z,99935.66
2022-07-27T20:13:17.042Z,99925.28
2022-07-27T20:15:43.662Z,99930.41
2022-07-27T20:18:10.152Z,99927.88
2022-07-27T20:20:36.759Z,99937.34
2022-07-27T20:23:06.200Z,99931.59
2022-07-27T20:25:32.818Z,99933.00
2022-07-27T20:27:59.892Z,99933.63
2022-07-27T20:30:26.707Z,99934.75
2022-07-27T20:32:53.206Z,99934.50
2022-07-27T20:35:19.942Z,99932.00
2022-07-27T20:37:47.473Z,99934.88
2022-07-27T20:40:14.472Z,99940.06
2022-07-27T20:42:41.913Z,99935.50
2022-07-27T20:45:11.117Z,99940.19
2022-07-27T20:47:40.554Z,99940.41
2022-07-27T20:50:11.729Z,99948.38
2022-07-27T20:52:39.311Z,99953.41
2022-07-27T20:55:07.223Z,99963.31
2022-07-27T20:57:33.805Z,99958.47
2022-07-27T21:00:00.370Z,99961.94
2022-07-27T21:02:27.291Z,99960.28
2022-07-27T21:04:54.969Z,99971.41
2022-07-27T21:07:21.691Z,99970.97
2022-07-27T21:09:48.366Z,99975.56
2022-07-27T21:12:15.671Z,99977.81
2022-07-27T21:14:42.789Z,99976.94
2022-07-27T21:17:09.402Z,99990.66
2022-07-27T21:19:36.067Z,99980.38
2022-07-27T21:22:02.706Z,99984.31
2022-07-27T21:24:29.887Z,99986.38
2022-07-27T21:27:00.934Z,99983.63
2022-07-27T21:29:31.713Z,99986.50
2022-07-27T21:31:58.761Z,99992.03
2022-07-27T21:34:25.335Z,99993.25
2022-07-27T21:36:51.812Z,99996.72
2022-07-27T21:39:18.928Z,100001.94
2022-07-27T21:41:45.611Z,100008.69
2022-07-27T21:44:12.281Z,100004.81
2022-07-27T21:46:39.185Z,100007.91
2022-07-27T21:49:05.758Z,100010.09
2022-07-27T21:51:32.308Z,100014.56
2022-07-27T21:53:59.207Z,100023.59
2022-07-27T21:56:25.679Z,100017.97
2022-07-27T21:58:52.184Z,100027.88
2022-07-27T22:01:19.236Z,100029.00
2022-07-27T22:03:45.993Z,100036.66
2022-07-27T22:06:12.721Z,100032.25
2022-07-27T22:08:39.705Z,100038.53
2022-07-27T22:11:06.696Z,100043.97
2022-07-27T22:13:33.726Z,100046.38
2022-07-27T22:16:01.003Z,100049.72
2022-07-27T22:18:28.766Z,100050.81
2022-07-27T22:20:55.932Z,100053.22
2022-07-27T22:23:22.724Z,100047.34
2022-07-27T22:25:49.536Z,100046.75
2022-07-27T22:28:16.009Z,100055.44
2022-07-27T22:30:42.689Z,100049.31
2022-07-27T22:33:09.226Z,100046.09
2022-07-27T22:35:35.715Z,100052.47
2022-07-27T22:38:02.701Z,100050.25
2022-07-27T22:40:29.308Z,100048.13
2022-07-27T22:42:55.794Z,100045.53
2022-07-27T22:45:22.727Z,100052.72
2022-07-27T22:47:49.314Z,100055.31
2022-07-27T22:50:18.238Z,100052.25
2022-07-27T22:52:45.152Z,100056.41
2022-07-27T22:55:11.721Z,100076.97
2022-07-27T22:57:38.202Z,100076.13
2022-07-27T23:00:06.340Z,100068.88
2022-07-27T23:02:34.185Z,100068.75
2022-07-27T23:05:00.742Z,100066.81
2022-07-27T23:07:27.662Z,100064.38
2022-07-27T23:09:54.223Z,100066.72
2022-07-27T23:12:23.768Z,100076.22
2022-07-27T23:14:50.510Z,100074.53
2022-07-27T23:17:17.120Z,100070.34
2022-07-27T23:19:43.638Z,100067.84
2022-07-27T23:22:11.545Z,100070.75
2022-07-27T23:24:41.014Z,100070.75
2022-07-27T23:27:08.082Z,100064.91
2022-07-27T23:29:34.698Z,100083.16
2022-07-27T23:32:02.876Z,100086.00
2022-07-27T23:34:29.522Z,100095.22
2022-07-27T23:36:56.554Z,100093.06
2022-07-27T23:39:23.069Z,100092.69
2022-07-27T23:41:50.323Z,100090.25
2022-07-27T23:44:17.571Z,100087.56
2022-07-27T23:46:44.293Z,100097.91
2022-07-27T23:49:10.990Z,100101.63
2022-07-27T23:51:37.689Z,100100.84
2022-07-27T23:54:04.474Z,100102.69
2022-07-27T23:56:30.954Z,100103.19
2022-07-27T23:58:57.630Z,100103.88
